DAUL/LOO METAR and TAF weather

Enter ICAO airport designator
Station Type Date Time Source
DAUL METAR 2020/11/25 21:00 UTC NOAA

DAUL 252100Z 22008KT CAVOK 10/M00 Q1020


Station Type Date Time Source
DAUL Decoded METAR 2020/11/25 21:00 UTC NOAA

Laghouat, Algeria (DAUL) 33-46N 002-56E 765M
Nov 25, 2020 - 04:00 PM EST / 2020.11.25 2100 UTC
Wind: from the SW (220 degrees) at 9 MPH (8 KT):0
Visibility: greater than 7 mile(s):0
Temperature: 50 F (10 C)
Dew Point: 32 F (0 C)
Relative Humidity: 49%
Pressure (altimeter): 30.12 in. Hg (1020 hPa)
ob: DAUL 252100Z 22008KT CAVOK 10/M00 Q1020
cycle: 21

Station Type Date Time Source
DAUL TAF 2017/11/09 18:03 UTC NOAA

TAF DAUL 091700Z 0918/1009 02012KT 9999 SCT030 SCT100 PROB40
TEMPO 0918/0924 35020G30KT 4000 -TSRA FEW030CB

Example: see airport list